createdAt,value
2018-06-04T00:00:22.957Z,17.84
2018-06-04T00:01:22.957Z,17.87
2018-06-04T00:02:22.947Z,17.81
2018-06-04T00:03:22.946Z,17.84
2018-06-04T00:04:22.951Z,17.84
2018-06-04T00:05:22.947Z,17.84
2018-06-04T00:06:22.950Z,17.77
2018-06-04T00:07:22.947Z,17.83
2018-06-04T00:08:22.940Z,17.86
2018-06-04T00:09:22.939Z,17.86
2018-06-04T00:10:22.938Z,17.86
2018-06-04T00:11:22.937Z,17.92
2018-06-04T00:12:22.963Z,17.91
2018-06-04T00:13:22.941Z,17.91
2018-06-04T00:14:22.936Z,17.91
2018-06-04T00:15:22.935Z,17.86
2018-06-04T00:16:22.930Z,17.92
2018-06-04T00:17:22.928Z,17.89
2018-06-04T00:18:22.932Z,17.87
2018-06-04T00:19:22.931Z,17.84
2018-06-04T00:20:22.924Z,17.80
2018-06-04T00:21:22.923Z,17.84
2018-06-04T00:22:22.923Z,17.89
2018-06-04T00:23:22.922Z,17.87
2018-06-04T00:24:22.925Z,17.80
2018-06-04T00:25:22.927Z,17.86
2018-06-04T00:26:22.923Z,17.84
2018-06-04T00:27:22.921Z,17.84
2018-06-04T00:28:22.914Z,17.81
2018-06-04T00:29:22.913Z,17.84
2018-06-04T00:30:22.911Z,17.86
2018-06-04T00:31:22.910Z,17.74
2018-06-04T00:32:22.941Z,17.79
2018-06-04T00:33:22.912Z,17.79
2018-06-04T00:34:22.906Z,17.80
2018-06-04T00:35:22.904Z,17.73
2018-06-04T00:36:22.914Z,17.76
2018-06-04T00:37:22.905Z,17.71
2018-06-04T00:38:22.906Z,17.62
2018-06-04T00:39:22.909Z,17.66
2018-06-04T00:40:22.898Z,17.57
2018-06-04T00:41:22.897Z,17.58
2018-06-04T00:42:22.896Z,17.55
2018-06-04T00:43:22.894Z,17.55
2018-06-04T00:44:22.896Z,17.45
2018-06-04T00:45:22.896Z,17.53
2018-06-04T00:46:22.895Z,17.45
2018-06-04T00:47:22.892Z,17.36
2018-06-04T00:48:22.886Z,17.40
2018-06-04T00:49:22.885Z,17.36
2018-06-04T00:50:22.917Z,17.36
2018-06-04T00:51:22.888Z,17.39
2018-06-04T00:52:22.881Z,17.38
2018-06-04T00:53:22.880Z,17.40
2018-06-04T00:54:22.879Z,17.39
2018-06-04T00:55:22.877Z,17.38
2018-06-04T00:56:22.880Z,17.40
2018-06-04T00:57:22.879Z,17.33
2018-06-04T00:58:22.876Z,17.35
2018-06-04T00:59:22.875Z,17.42
2018-06-04T01:00:22.869Z,17.42
2018-06-04T01:01:22.868Z,17.32
2018-06-04T01:02:22.866Z,17.28
2018-06-04T01:03:22.865Z,17.35
2018-06-04T01:04:22.868Z,17.28
2018-06-04T01:05:22.867Z,17.35
2018-06-04T01:06:22.861Z,17.35
2018-06-04T01:07:22.861Z,17.36
2018-06-04T01:08:22.862Z,17.30
2018-06-04T01:09:22.861Z,17.33
2018-06-04T01:10:22.859Z,17.35
2018-06-04T01:11:22.858Z,17.33
2018-06-04T01:12:22.851Z,17.32
2018-06-04T01:13:22.851Z,17.30
2018-06-04T01:14:22.848Z,17.42
2018-06-04T01:15:22.849Z,17.43
2018-06-04T01:16:22.849Z,17.35
2018-06-04T01:17:22.848Z,17.39
2018-06-04T01:18:22.847Z,17.42
2018-06-04T01:19:22.846Z,17.36
2018-06-04T01:20:22.839Z,17.36
2018-06-04T01:21:22.837Z,17.42
2018-06-04T01:22:22.842Z,17.40
2018-06-04T01:23:22.841Z,17.43
2018-06-04T01:24:22.832Z,17.42
2018-06-04T01:25:22.831Z,17.43
2018-06-04T01:26:22.830Z,17.33
2018-06-04T01:27:22.830Z,17.30
2018-06-04T01:28:22.831Z,17.35
2018-06-04T01:29:22.830Z,17.25
2018-06-04T01:30:22.829Z,17.30
2018-06-04T01:31:22.826Z,17.30
2018-06-04T01:32:22.822Z,17.22
2018-06-04T01:33:22.818Z,17.27
2018-06-04T01:34:22.817Z,17.27
2018-06-04T01:35:22.816Z,17.20
2018-06-04T01:36:22.819Z,17.17
2018-06-04T01:37:22.818Z,17.25
2018-06-04T01:38:22.813Z,17.09
2018-06-04T01:39:22.810Z,17.17
2018-06-04T01:40:22.812Z,17.14
2018-06-04T01:41:22.811Z,17.09
2018-06-04T01:42:22.809Z,16.98
2018-06-04T01:43:22.808Z,16.98
2018-06-04T01:44:22.802Z,17.02
2018-06-04T01:45:22.799Z,16.95
2018-06-04T01:46:22.798Z,17.00
2018-06-04T01:47:22.797Z,16.95
2018-06-04T01:48:22.798Z,16.92
2018-06-04T01:49:22.796Z,17.00
2018-06-04T01:50:22.801Z,17.02
2018-06-04T01:51:22.794Z,17.03
2018-06-04T01:52:22.788Z,16.95
2018-06-04T01:53:22.786Z,17.06
2018-06-04T01:54:22.790Z,16.99
2018-06-04T01:55:22.788Z,17.03
2018-06-04T01:56:22.780Z,17.06
2018-06-04T01:57:22.780Z,17.12
2018-06-04T01:58:22.777Z,17.07
2018-06-04T01:59:22.776Z,17.12
2018-06-04T02:00:22.778Z,17.03
2018-06-04T02:01:22.776Z,17.09
2018-06-04T02:02:22.776Z,17.09
2018-06-04T02:03:22.774Z,17.10
2018-06-04T02:04:22.766Z,17.00
2018-06-04T02:05:22.766Z,17.06
2018-06-04T02:06:22.763Z,17.06
2018-06-04T02:07:22.762Z,17.06
2018-06-04T02:08:22.768Z,17.07
2018-06-04T02:09:22.762Z,17.10
2018-06-04T02:10:22.756Z,17.07
2018-06-04T02:11:22.756Z,17.05
2018-06-04T02:12:22.756Z,17.05
2018-06-04T02:13:22.755Z,17.05
2018-06-04T02:14:22.754Z,17.02
2018-06-04T02:15:22.757Z,16.99
2018-06-04T02:16:22.745Z,16.95
2018-06-04T02:17:22.743Z,16.90
2018-06-04T02:18:22.743Z,17.00
2018-06-04T02:19:22.742Z,16.99
2018-06-04T02:20:22.747Z,16.92
2018-06-04T02:21:22.741Z,16.84
2018-06-04T02:22:22.739Z,16.91
2018-06-04T02:23:22.737Z,16.95
2018-06-04T02:24:22.730Z,16.91
2018-06-04T02:25:22.729Z,16.88
2018-06-04T02:26:22.731Z,16.78
2018-06-04T02:27:22.735Z,16.87
2018-06-04T02:28:22.723Z,16.87
2018-06-04T02:29:22.722Z,16.80
2018-06-04T02:30:22.719Z,16.90
2018-06-04T02:31:22.720Z,16.81
2018-06-04T02:32:22.723Z,16.82
2018-06-04T02:33:22.719Z,16.87
2018-06-04T02:34:22.719Z,16.80
2018-06-04T02:35:22.715Z,16.80
2018-06-04T02:36:22.711Z,16.82
2018-06-04T02:37:22.708Z,16.81
2018-06-04T02:38:22.705Z,16.80
2018-06-04T02:39:22.703Z,16.82
2018-06-04T02:40:22.717Z,16.84
2018-06-04T02:41:22.703Z,16.78
2018-06-04T02:42:22.701Z,16.81
2018-06-04T02:43:22.696Z,16.75
2018-06-04T02:44:22.699Z,16.72
2018-06-04T02:45:22.695Z,16.73
2018-06-04T02:46:22.695Z,16.77
2018-06-04T02:47:22.704Z,16.69
2018-06-04T02:48:22.685Z,16.77
2018-06-04T02:49:22.684Z,16.77
2018-06-04T02:50:22.685Z,16.78
2018-06-04T02:51:22.679Z,16.78
2018-06-04T02:52:22.687Z,16.75
2018-06-04T02:53:22.682Z,16.84
2018-06-04T02:54:22.680Z,16.70
2018-06-04T02:55:22.677Z,16.73
2018-06-04T02:56:22.669Z,16.72
2018-06-04T02:57:22.667Z,16.75
2018-06-04T02:58:22.673Z,16.73
2018-06-04T02:59:22.668Z,16.73
2018-06-04T03:00:22.661Z,16.77
2018-06-04T03:01:22.660Z,16.81
2018-06-04T03:02:22.657Z,16.81
2018-06-04T03:03:22.657Z,16.77
2018-06-04T03:04:22.659Z,16.77
2018-06-04T03:05:22.656Z,16.78
2018-06-04T03:06:22.655Z,16.77
2018-06-04T03:07:22.652Z,16.78
2018-06-04T03:08:22.647Z,16.77
2018-06-04T03:09:22.643Z,16.73
2018-06-04T03:10:22.646Z,16.69
2018-06-04T03:11:22.642Z,16.69
2018-06-04T03:12:22.643Z,16.77
2018-06-04T03:13:22.647Z,16.77
2018-06-04T03:14:22.634Z,16.70
2018-06-04T03:15:22.635Z,16.66
2018-06-04T03:16:22.635Z,16.66
2018-06-04T03:17:22.632Z,16.63
2018-06-04T03:18:22.631Z,16.59
2018-06-04T03:19:22.628Z,16.72
2018-06-04T03:20:22.622Z,16.77
2018-06-04T03:21:22.619Z,16.77
2018-06-04T03:22:22.617Z,16.77
2018-06-04T03:23:22.614Z,16.77
2018-06-04T03:24:22.617Z,16.73
2018-06-04T03:25:22.616Z,16.77
2018-06-04T03:26:22.618Z,16.70
2018-06-04T03:27:22.612Z,16.73
2018-06-04T03:28:22.604Z,16.66
2018-06-04T03:29:22.603Z,16.66
2018-06-04T03:30:22.606Z,16.70
2018-06-04T03:31:22.604Z,16.72
2018-06-04T03:32:22.596Z,16.78
2018-06-04T03:33:22.594Z,16.78
2018-06-04T03:34:22.593Z,16.81
2018-06-04T03:35:22.591Z,16.80
2018-06-04T03:36:22.593Z,16.75
2018-06-04T03:37:22.590Z,16.73
2018-06-04T03:38:22.589Z,16.81
2018-06-04T03:39:22.590Z,16.75
2018-06-04T03:40:22.582Z,16.72
2018-06-04T03:41:22.578Z,16.80
2018-06-04T03:42:22.576Z,16.81
2018-06-04T03:43:22.574Z,16.78
2018-06-04T03:44:22.577Z,16.72
2018-06-04T03:45:22.575Z,16.80
2018-06-04T03:46:22.569Z,16.81
2018-06-04T03:47:22.567Z,16.75
2018-06-04T03:48:22.570Z,16.78
2018-06-04T03:49:22.568Z,16.80
2018-06-04T03:50:22.565Z,16.85
2018-06-04T03:51:22.563Z,16.78
2018-06-04T03:52:22.556Z,16.78
2018-06-04T03:53:22.553Z,16.88
2018-06-04T03:54:22.552Z,16.80
2018-06-04T03:55:22.550Z,16.82
2018-06-04T03:56:22.552Z,16.87
2018-06-04T03:57:22.550Z,16.88
2018-06-04T03:58:22.549Z,16.90
2018-06-04T03:59:22.547Z,16.88
2018-06-04T04:00:22.540Z,16.95
2018-06-04T04:01:22.539Z,16.91
2018-06-04T04:02:22.541Z,16.98
2018-06-04T04:03:22.540Z,16.99
2018-06-04T04:04:22.533Z,17.03
2018-06-04T04:05:22.531Z,16.85
2018-06-04T04:06:22.530Z,16.99
2018-06-04T04:07:22.528Z,17.05
2018-06-04T04:08:22.543Z,17.02
2018-06-04T04:09:22.527Z,17.05
2018-06-04T04:10:22.529Z,17.00
2018-06-04T04:11:22.526Z,16.92
2018-06-04T04:12:22.519Z,16.98
2018-06-04T04:13:22.517Z,16.99
2018-06-04T04:14:22.515Z,17.05
2018-06-04T04:15:22.512Z,17.07
2018-06-04T04:16:22.514Z,17.10
2018-06-04T04:17:22.515Z,17.09
2018-06-04T04:18:22.507Z,17.14
2018-06-04T04:19:22.576Z,17.15
2018-06-04T04:20:22.508Z,17.14
2018-06-04T04:21:22.507Z,17.22
2018-06-04T04:22:22.506Z,17.15
2018-06-04T04:23:22.505Z,17.21
2018-06-04T04:24:22.498Z,17.35
2018-06-04T04:25:22.496Z,17.30
2018-06-04T04:26:22.497Z,17.36
2018-06-04T04:27:22.495Z,17.39
2018-06-04T04:28:22.496Z,17.38
2018-06-04T04:29:22.494Z,17.55
2018-06-04T04:30:22.494Z,17.60
2018-06-04T04:31:22.492Z,17.54
2018-06-04T04:32:22.485Z,17.57
2018-06-04T04:33:22.484Z,17.57
2018-06-04T04:34:22.487Z,17.58
2018-06-04T04:35:22.486Z,17.73
2018-06-04T04:36:22.480Z,17.71
2018-06-04T04:37:22.478Z,17.86
2018-06-04T04:38:22.480Z,17.84
2018-06-04T04:39:22.477Z,17.95
2018-06-04T04:40:22.479Z,17.96
2018-06-04T04:41:22.478Z,18.01
2018-06-04T04:42:22.479Z,18.02
2018-06-04T04:43:22.482Z,18.07
2018-06-04T04:44:22.469Z,18.02
2018-06-04T04:45:22.469Z,18.13
2018-06-04T04:46:22.468Z,18.20
2018-06-04T04:47:22.467Z,18.36
2018-06-04T04:48:22.470Z,18.35
2018-06-04T04:49:22.470Z,18.41
2018-06-04T04:50:22.464Z,18.51
2018-06-04T04:51:22.464Z,18.62
2018-06-04T04:52:22.465Z,18.68
2018-06-04T04:53:22.465Z,18.84
2018-06-04T04:54:22.472Z,18.96
2018-06-04T04:55:22.465Z,19.01
2018-06-04T04:56:22.460Z,19.24
2018-06-04T04:57:22.458Z,19.45
2018-06-04T04:58:22.459Z,19.55
2018-06-04T04:59:22.459Z,19.79
2018-06-04T05:00:22.463Z,20.00
2018-06-04T05:01:22.472Z,20.13
2018-06-04T05:02:22.463Z,20.30
2018-06-04T05:03:22.464Z,20.44
2018-06-04T05:04:22.459Z,20.68
2018-06-04T05:05:22.460Z,20.94
2018-06-04T05:06:22.466Z,21.12
2018-06-04T05:07:22.467Z,21.46
2018-06-04T05:08:22.464Z,21.73
2018-06-04T05:09:22.465Z,22.05
2018-06-04T05:10:22.467Z,22.26
2018-06-04T05:11:22.469Z,22.57
2018-06-04T05:12:22.476Z,22.91
2018-06-04T05:13:22.478Z,23.38
2018-06-04T05:14:22.490Z,23.63
2018-06-04T05:15:22.484Z,23.97
2018-06-04T05:16:22.482Z,24.30
2018-06-04T05:17:22.484Z,24.67
2018-06-04T05:18:22.488Z,24.93
2018-06-04T05:19:22.491Z,25.23
2018-06-04T05:20:22.499Z,25.60
2018-06-04T05:21:22.503Z,25.74
2018-06-04T05:22:22.502Z,25.94
2018-06-04T05:23:22.506Z,26.31
2018-06-04T05:24:22.513Z,26.50
2018-06-04T05:25:22.519Z,26.79
2018-06-04T05:26:22.521Z,26.94
2018-06-04T05:27:22.526Z,27.11
2018-06-04T05:28:22.524Z,27.38
2018-06-04T05:29:22.533Z,27.58
2018-06-04T05:30:22.539Z,27.86
2018-06-04T05:31:22.538Z,28.01
2018-06-04T05:32:22.547Z,28.32
2018-06-04T05:33:22.553Z,28.50
2018-06-04T05:34:22.558Z,28.67
2018-06-04T05:35:22.563Z,28.87
2018-06-04T05:36:22.563Z,28.91
2018-06-04T05:37:22.568Z,29.07
2018-06-04T05:38:22.578Z,28.94
2018-06-04T05:39:22.585Z,29.10
2018-06-04T05:40:22.583Z,29.21
2018-06-04T05:41:22.590Z,29.15
2018-06-04T05:42:22.600Z,29.47
2018-06-04T05:43:22.600Z,29.57
2018-06-04T05:44:22.611Z,29.85
2018-06-04T05:45:22.616Z,30.03
2018-06-04T05:46:22.621Z,30.26
2018-06-04T05:47:22.631Z,30.49
2018-06-04T05:48:22.629Z,30.70
2018-06-04T05:49:22.635Z,30.91
2018-06-04T05:50:22.642Z,30.90
2018-06-04T05:51:22.648Z,30.93
2018-06-04T05:52:22.660Z,31.01
2018-06-04T05:53:22.668Z,31.15
2018-06-04T05:54:22.667Z,31.16
2018-06-04T05:55:22.674Z,31.13
2018-06-04T05:56:22.686Z,31.35
2018-06-04T05:57:22.697Z,31.60
2018-06-04T05:58:22.699Z,31.64
2018-06-04T05:59:22.706Z,31.90
2018-06-04T06:00:22.708Z,31.99
2018-06-04T06:01:22.715Z,32.14
2018-06-04T06:02:22.724Z,32.28
2018-06-04T06:03:22.734Z,32.53
2018-06-04T06:04:22.742Z,32.62
2018-06-04T06:05:22.748Z,32.76
2018-06-04T06:06:22.765Z,32.96
2018-06-04T06:07:22.773Z,33.12
2018-06-04T06:08:22.768Z,33.24
2018-06-04T06:09:22.780Z,33.43
2018-06-04T06:10:22.790Z,33.56
2018-06-04T06:11:22.797Z,33.72
2018-06-04T06:12:22.800Z,33.70
2018-06-04T06:13:22.811Z,33.84
2018-06-04T06:14:22.826Z,33.89
2018-06-04T06:15:22.829Z,34.03
2018-06-04T06:16:22.841Z,34.16
2018-06-04T06:17:22.847Z,34.30
2018-06-04T06:18:22.858Z,34.31
2018-06-04T06:19:22.867Z,34.45
2018-06-04T06:20:22.875Z,34.72
2018-06-04T06:21:22.882Z,34.94
2018-06-04T06:22:22.890Z,35.22
2018-06-04T06:23:22.899Z,35.07
2018-06-04T06:24:22.913Z,35.27
2018-06-04T06:25:22.956Z,34.94
2018-06-04T06:26:22.929Z,35.03
2018-06-04T06:27:22.939Z,35.18
2018-06-04T06:28:22.953Z,35.15
2018-06-04T06:29:22.963Z,35.32
2018-06-04T06:30:22.975Z,35.49
2018-06-04T06:31:22.986Z,35.56
2018-06-04T06:32:22.990Z,35.49
2018-06-04T06:33:23.002Z,35.61
2018-06-04T06:34:23.016Z,35.29
2018-06-04T06:35:23.032Z,34.90
2018-06-04T06:36:23.048Z,34.76
2018-06-04T06:37:23.051Z,34.27
2018-06-04T06:38:23.061Z,34.42
2018-06-04T06:39:23.072Z,34.40
2018-06-04T06:40:23.107Z,34.67
2018-06-04T06:41:23.090Z,34.98
2018-06-04T06:42:23.107Z,35.44
2018-06-04T06:43:23.119Z,35.71
2018-06-04T06:44:23.126Z,35.50
2018-06-04T06:45:23.141Z,35.92
2018-06-04T06:46:23.150Z,36.05
2018-06-04T06:47:23.163Z,36.27
2018-06-04T06:48:23.179Z,36.40
2018-06-04T06:49:23.193Z,36.52
2018-06-04T06:50:23.204Z,36.84
2018-06-04T06:51:23.215Z,37.08
2018-06-04T06:52:23.223Z,37.30
2018-06-04T06:53:23.235Z,37.35
2018-06-04T06:54:23.249Z,37.56
2018-06-04T06:55:23.316Z,37.90
2018-06-04T06:56:23.278Z,38.04
2018-06-04T06:57:23.290Z,38.30
2018-06-04T06:58:23.299Z,38.43
2018-06-04T06:59:23.313Z,38.55
2018-06-04T07:00:23.330Z,38.67
2018-06-04T07:01:23.344Z,38.78
2018-06-04T07:02:23.359Z,38.43
2018-06-04T07:03:23.373Z,38.56
2018-06-04T07:04:23.380Z,38.70
2018-06-04T07:05:23.394Z,38.68
2018-06-04T07:06:23.408Z,38.47
2018-06-04T07:07:23.422Z,38.38
2018-06-04T07:08:23.453Z,38.60
2018-06-04T07:09:23.456Z,38.53
2018-06-04T07:10:23.470Z,38.63
2018-06-04T07:11:23.482Z,38.68
2018-06-04T07:12:23.491Z,38.63
2018-06-04T07:13:23.506Z,38.74
2018-06-04T07:14:23.526Z,38.78
2018-06-04T07:15:23.539Z,38.82
2018-06-04T07:16:23.548Z,38.97
2018-06-04T07:17:23.564Z,39.28
2018-06-04T07:18:23.579Z,39.43
2018-06-04T07:19:23.593Z,39.48
2018-06-04T07:20:23.614Z,39.53
2018-06-04T07:21:23.641Z,38.74
2018-06-04T07:22:23.644Z,38.86
2018-06-04T07:23:23.657Z,37.40
2018-06-04T07:24:23.668Z,37.01
2018-06-04T07:25:23.683Z,37.27
2018-06-04T07:26:23.699Z,37.58
2018-06-04T07:27:23.714Z,37.62
2018-06-04T07:28:23.733Z,37.82
2018-06-04T07:29:23.747Z,37.46
2018-06-04T07:30:23.759Z,37.15
2018-06-04T07:31:23.776Z,37.11
2018-06-04T07:32:23.794Z,37.47
2018-06-04T07:33:23.809Z,37.39
2018-06-04T07:34:23.825Z,37.50
2018-06-04T07:35:23.840Z,37.84
2018-06-04T07:36:23.854Z,36.75
2018-06-04T07:37:23.865Z,37.30
2018-06-04T07:38:23.884Z,37.62
2018-06-04T07:39:23.899Z,38.04
2018-06-04T07:40:23.915Z,38.28
2018-06-04T07:41:23.989Z,37.84
2018-06-04T07:42:23.948Z,38.07
2018-06-04T07:43:23.964Z,38.55
2018-06-04T07:44:24.052Z,38.52
2018-06-04T07:45:23.991Z,39.02
2018-06-04T07:46:24.011Z,39.53
2018-06-04T07:47:24.026Z,39.10
2018-06-04T07:48:24.037Z,39.24
2018-06-04T07:49:24.305Z,38.84
2018-06-04T07:50:24.071Z,38.84
2018-06-04T07:51:24.086Z,39.35
2018-06-04T07:52:24.113Z,39.84
2018-06-04T07:53:24.124Z,40.07
2018-06-04T07:54:24.139Z,38.98
2018-06-04T07:55:24.162Z,37.70
2018-06-04T07:56:24.168Z,37.70
2018-06-04T07:57:24.206Z,37.69
2018-06-04T07:58:24.202Z,38.03
2018-06-04T07:59:24.220Z,37.93
2018-06-04T08:00:24.239Z,37.62
2018-06-04T08:01:24.257Z,37.59
2018-06-04T08:02:24.269Z,37.62
2018-06-04T08:03:24.287Z,37.60
2018-06-04T08:04:24.357Z,38.45
2018-06-04T08:05:24.324Z,39.29
2018-06-04T08:06:24.361Z,39.48
2018-06-04T08:07:24.359Z,39.41
2018-06-04T08:08:24.370Z,39.41
2018-06-04T08:09:24.385Z,38.97
2018-06-04T08:10:24.404Z,39.00
2018-06-04T08:11:24.422Z,38.21
2018-06-04T08:12:24.443Z,38.62
2018-06-04T08:13:24.460Z,39.09
2018-06-04T08:14:24.479Z,38.30
2018-06-04T08:15:24.496Z,38.19
2018-06-04T08:16:24.509Z,38.82
2018-06-04T08:17:24.526Z,39.57
2018-06-04T08:18:24.548Z,40.38
2018-06-04T08:19:24.567Z,39.69
2018-06-04T08:20:24.580Z,39.14
2018-06-04T08:21:24.598Z,39.36
2018-06-04T08:22:24.614Z,39.35
2018-06-04T08:23:24.632Z,39.88
2018-06-04T08:24:24.656Z,40.57
2018-06-04T08:25:24.671Z,39.10
2018-06-04T08:26:24.690Z,36.90
2018-06-04T08:27:24.708Z,35.40
2018-06-04T08:28:24.722Z,35.00
2018-06-04T08:29:24.741Z,35.95
2018-06-04T08:30:24.756Z,36.72
2018-06-04T08:31:24.775Z,37.23
2018-06-04T08:32:24.797Z,37.23
2018-06-04T08:33:24.817Z,37.24
2018-06-04T08:34:24.838Z,37.47
2018-06-04T08:35:24.845Z,37.30
2018-06-04T08:36:24.867Z,37.40
2018-06-04T08:37:24.884Z,37.85
2018-06-04T08:38:24.956Z,38.24
2018-06-04T08:39:24.919Z,38.26
2018-06-04T08:40:24.930Z,36.90
2018-06-04T08:41:24.949Z,35.55
2018-06-04T08:42:24.966Z,36.43
2018-06-04T08:43:24.983Z,37.40
2018-06-04T08:44:25.009Z,37.35
2018-06-04T08:45:25.023Z,37.47
2018-06-04T08:46:25.041Z,38.30
2018-06-04T08:47:25.058Z,38.93
2018-06-04T08:48:25.072Z,39.12
2018-06-04T08:49:25.090Z,39.65
2018-06-04T08:50:25.116Z,40.09
2018-06-04T08:51:25.134Z,39.59
2018-06-04T08:52:25.145Z,39.35
2018-06-04T08:53:25.163Z,39.00
2018-06-04T08:54:25.199Z,39.46
2018-06-04T08:55:25.201Z,40.11
2018-06-04T08:56:25.295Z,40.58
2018-06-04T08:57:25.241Z,39.51
2018-06-04T08:58:25.260Z,39.29
2018-06-04T08:59:25.280Z,39.47
2018-06-04T09:00:25.293Z,39.47
2018-06-04T09:01:25.312Z,39.01
2018-06-04T09:02:25.332Z,39.73
2018-06-04T09:03:25.355Z,39.66
2018-06-04T09:04:25.373Z,39.36
2018-06-04T09:05:25.394Z,39.44
2018-06-04T09:06:25.408Z,38.68
2018-06-04T09:07:25.428Z,38.89
2018-06-04T09:08:25.451Z,38.14
2018-06-04T09:09:25.469Z,37.46
2018-06-04T09:10:25.492Z,37.15
2018-06-04T09:11:25.511Z,37.31
2018-06-04T09:12:25.524Z,37.88
2018-06-04T09:13:25.541Z,37.77
2018-06-04T09:14:25.561Z,37.24
2018-06-04T09:15:25.585Z,37.50
2018-06-04T09:16:25.603Z,37.60
2018-06-04T09:17:25.632Z,37.35
2018-06-04T09:18:25.641Z,37.62
2018-06-04T09:19:25.661Z,37.68
2018-06-04T09:20:25.674Z,38.33
2018-06-04T09:21:25.693Z,38.19
2018-06-04T09:22:25.716Z,38.04
2018-06-04T09:23:25.736Z,37.53
2018-06-04T09:24:25.748Z,36.22
2018-06-04T09:25:25.767Z,35.81
2018-06-04T09:26:25.786Z,36.50
2018-06-04T09:27:25.806Z,36.97
2018-06-04T09:28:25.826Z,37.60
2018-06-04T09:29:25.843Z,37.93
2018-06-04T09:30:25.863Z,38.07
2018-06-04T09:31:25.880Z,36.00
2018-06-04T09:32:25.892Z,35.06
2018-06-04T09:33:25.910Z,35.56
2018-06-04T09:34:25.931Z,36.22
2018-06-04T09:35:25.946Z,36.97
2018-06-04T09:36:25.967Z,37.28
2018-06-04T09:37:25.989Z,37.63
2018-06-04T09:38:25.999Z,36.00
2018-06-04T09:39:26.017Z,35.76
2018-06-04T09:40:26.038Z,36.11
2018-06-04T09:41:26.063Z,36.99
2018-06-04T09:42:26.076Z,37.38
2018-06-04T09:43:26.098Z,37.80
2018-06-04T09:44:26.106Z,37.24
2018-06-04T09:45:26.125Z,37.40
2018-06-04T09:46:26.145Z,38.36
2018-06-04T09:47:26.212Z,39.09
2018-06-04T09:48:26.183Z,39.92
2018-06-04T09:49:26.202Z,39.50
2018-06-04T09:50:26.222Z,40.13
2018-06-04T09:51:26.238Z,38.53
2018-06-04T09:52:26.250Z,37.46
2018-06-04T09:53:26.274Z,37.90
2018-06-04T09:54:26.294Z,37.72
2018-06-04T09:55:26.312Z,36.67
2018-06-04T09:56:26.323Z,35.50
2018-06-04T09:57:26.341Z,34.73
2018-06-04T09:58:26.359Z,34.06
2018-06-04T09:59:26.377Z,34.23
2018-06-04T10:00:26.398Z,34.46
2018-06-04T10:01:26.414Z,34.45
2018-06-04T10:02:26.432Z,35.28
2018-06-04T10:03:26.452Z,35.92
2018-06-04T10:04:26.457Z,36.37
2018-06-04T10:05:26.474Z,37.23
2018-06-04T10:06:26.490Z,37.77
2018-06-04T10:07:26.510Z,37.75
2018-06-04T10:08:26.548Z,35.55
2018-06-04T10:09:26.543Z,34.55
2018-06-04T10:10:26.555Z,34.16
2018-06-04T10:11:26.571Z,33.60
2018-06-04T10:12:26.590Z,33.43
2018-06-04T10:13:26.606Z,34.12
2018-06-04T10:14:26.623Z,35.09
2018-06-04T10:15:26.637Z,35.96
2018-06-04T10:16:26.647Z,36.27
2018-06-04T10:17:26.668Z,35.93
2018-06-04T10:18:26.678Z,34.80
2018-06-04T10:19:26.693Z,34.91
2018-06-04T10:20:26.712Z,35.15
2018-06-04T10:21:26.728Z,34.93
2018-06-04T10:22:26.754Z,33.89
2018-06-04T10:23:26.757Z,33.75
2018-06-04T10:24:26.768Z,34.24
2018-06-04T10:25:26.784Z,35.17
2018-06-04T10:26:26.803Z,35.03
2018-06-04T10:27:26.830Z,35.83
2018-06-04T10:28:26.832Z,35.77
2018-06-04T10:29:26.847Z,36.57
2018-06-04T10:30:26.860Z,37.11
2018-06-04T10:31:26.876Z,37.75
2018-06-04T10:32:26.896Z,37.75
2018-06-04T10:33:26.916Z,37.66
2018-06-04T10:34:26.928Z,37.16
2018-06-04T10:35:26.945Z,36.62
2018-06-04T10:36:26.955Z,35.92
2018-06-04T10:37:26.973Z,35.25
2018-06-04T10:38:26.988Z,34.93
2018-06-04T10:39:27.005Z,34.60
2018-06-04T10:40:27.033Z,35.40
2018-06-04T10:41:27.044Z,35.49
2018-06-04T10:42:27.050Z,35.52
2018-06-04T10:43:27.065Z,35.12
2018-06-04T10:44:27.082Z,35.83
2018-06-04T10:45:27.098Z,35.52
2018-06-04T10:46:27.173Z,35.21
2018-06-04T10:47:27.126Z,36.43
2018-06-04T10:48:27.136Z,37.11
2018-06-04T10:49:27.150Z,35.93
2018-06-04T10:50:27.165Z,35.89
2018-06-04T10:51:27.183Z,35.54
2018-06-04T10:52:27.197Z,35.29
2018-06-04T10:53:27.213Z,35.25
2018-06-04T10:54:27.229Z,35.27
2018-06-04T10:55:27.243Z,35.39
2018-06-04T10:56:27.251Z,35.27
2018-06-04T10:57:27.270Z,35.29
2018-06-04T10:58:27.285Z,36.16
2018-06-04T10:59:27.300Z,36.64
2018-06-04T11:00:27.309Z,36.27
2018-06-04T11:01:27.321Z,36.31
2018-06-04T11:02:27.337Z,35.83
2018-06-04T11:03:27.350Z,35.66
2018-06-04T11:04:27.367Z,36.18
2018-06-04T11:05:27.382Z,35.28
2018-06-04T11:06:27.396Z,35.18
2018-06-04T11:07:27.411Z,35.66
2018-06-04T11:08:27.420Z,35.62
2018-06-04T11:09:27.435Z,35.44
2018-06-04T11:10:27.453Z,35.21
2018-06-04T11:11:27.467Z,35.83
2018-06-04T11:12:27.487Z,34.19
2018-06-04T11:13:27.499Z,32.96
2018-06-04T11:14:27.508Z,32.54
2018-06-04T11:15:27.523Z,32.25
2018-06-04T11:16:27.541Z,32.25
2018-06-04T11:17:27.556Z,31.59
2018-06-04T11:18:27.568Z,31.37
2018-06-04T11:19:27.582Z,31.69
2018-06-04T11:20:27.592Z,31.78
2018-06-04T11:21:27.604Z,32.17
2018-06-04T11:22:27.621Z,32.71
2018-06-04T11:23:27.630Z,32.98
2018-06-04T11:24:27.645Z,32.98
2018-06-04T11:25:27.659Z,33.28
2018-06-04T11:26:27.672Z,33.02
2018-06-04T11:27:27.682Z,32.71
2018-06-04T11:28:27.689Z,32.58
2018-06-04T11:29:27.701Z,32.03
2018-06-04T11:30:27.738Z,31.31
2018-06-04T11:31:27.729Z,31.04
2018-06-04T11:32:27.738Z,31.10
2018-06-04T11:33:27.747Z,31.00
2018-06-04T11:34:27.757Z,31.15
2018-06-04T11:35:27.769Z,30.94
2018-06-04T11:36:27.782Z,30.70
2018-06-04T11:37:27.844Z,30.66
2018-06-04T11:38:27.805Z,30.76
2018-06-04T11:39:27.814Z,31.07
2018-06-04T11:40:27.823Z,31.46
2018-06-04T11:41:27.829Z,31.47
2018-06-04T11:42:27.837Z,31.32
2018-06-04T11:43:27.848Z,31.00
2018-06-04T11:44:27.860Z,31.04
2018-06-04T11:45:27.871Z,31.05
2018-06-04T11:46:27.876Z,31.31
2018-06-04T11:47:27.885Z,31.22
2018-06-04T11:48:27.897Z,31.07
2018-06-04T11:49:27.906Z,30.96
2018-06-04T11:50:27.922Z,30.98
2018-06-04T11:51:27.927Z,31.04
2018-06-04T11:52:27.929Z,31.19
2018-06-04T11:53:27.940Z,30.60
2018-06-04T11:54:27.948Z,30.45
2018-06-04T11:55:27.957Z,29.92
2018-06-04T11:56:28.019Z,29.84
2018-06-04T11:57:27.979Z,30.07
2018-06-04T11:58:27.986Z,30.25
2018-06-04T11:59:27.993Z,30.30
2018-06-04T12:00:27.998Z,30.49
2018-06-04T12:01:28.004Z,30.56
2018-06-04T12:02:28.017Z,30.76
2018-06-04T12:03:28.026Z,30.82
2018-06-04T12:04:28.029Z,30.60
2018-06-04T12:05:28.038Z,30.73
2018-06-04T12:06:28.046Z,30.81
2018-06-04T12:07:28.054Z,30.96
2018-06-04T12:08:28.067Z,30.68
2018-06-04T12:09:28.077Z,30.79
2018-06-04T12:10:28.083Z,30.81
2018-06-04T12:11:28.157Z,30.96
2018-06-04T12:12:28.094Z,31.03
2018-06-04T12:13:28.102Z,30.75
2018-06-04T12:14:28.116Z,30.70
2018-06-04T12:15:28.123Z,30.49
2018-06-04T12:16:28.146Z,30.49
2018-06-04T12:17:28.168Z,30.34
2018-06-04T12:18:28.145Z,30.54
2018-06-04T12:19:28.147Z,30.48
2018-06-04T12:20:28.162Z,30.67
2018-06-04T12:21:28.167Z,30.81
2018-06-04T12:22:28.178Z,31.03
2018-06-04T12:23:28.185Z,31.38
2018-06-04T12:24:28.185Z,31.75
2018-06-04T12:25:28.194Z,31.91
2018-06-04T12:26:28.202Z,32.19
2018-06-04T12:27:28.210Z,32.21
2018-06-04T12:28:28.221Z,32.25
2018-06-04T12:29:28.229Z,32.21
2018-06-04T12:30:28.237Z,31.97
2018-06-04T12:31:28.244Z,31.79
2018-06-04T12:32:28.246Z,31.60
2018-06-04T12:33:28.254Z,31.64
2018-06-04T12:34:28.267Z,31.38
2018-06-04T12:35:28.276Z,31.04
2018-06-04T12:36:28.277Z,30.96
2018-06-04T12:37:28.285Z,30.63
2018-06-04T12:38:28.293Z,30.46
2018-06-04T12:39:28.301Z,30.37
2018-06-04T12:40:28.312Z,30.34
2018-06-04T12:41:28.321Z,30.36
2018-06-04T12:42:28.324Z,30.38
2018-06-04T12:43:28.331Z,30.54
2018-06-04T12:44:28.342Z,30.54
2018-06-04T12:45:28.356Z,30.63
2018-06-04T12:46:28.359Z,30.68
2018-06-04T12:47:28.365Z,30.70
2018-06-04T12:48:28.366Z,30.83
2018-06-04T12:49:28.374Z,30.90
2018-06-04T12:50:28.386Z,31.03
2018-06-04T12:51:28.395Z,31.04
2018-06-04T12:52:28.395Z,30.98